createdAt,value
2018-11-27T00:00:17.532Z,81.38
2018-11-27T00:01:17.476Z,81.35
2018-11-27T00:02:17.460Z,81.24
2018-11-27T00:03:17.456Z,81.59
2018-11-27T00:04:17.474Z,81.45
2018-11-27T00:05:17.467Z,81.35
2018-11-27T00:06:17.436Z,81.66
2018-11-27T00:07:17.459Z,81.66
2018-11-27T00:08:17.400Z,81.90
2018-11-27T00:09:17.388Z,81.66
2018-11-27T00:10:17.378Z,81.56
2018-11-27T00:11:17.392Z,81.76
2018-11-27T00:12:17.422Z,82.11
2018-11-27T00:13:17.376Z,81.45
2018-11-27T00:14:17.334Z,81.97
2018-11-27T00:15:17.330Z,81.87
2018-11-27T00:16:17.315Z,82.07
2018-11-27T00:17:17.574Z,82.07
2018-11-27T00:18:17.285Z,81.45
2018-11-27T00:19:17.312Z,82.49
2018-11-27T00:20:17.266Z,82.18
2018-11-27T00:21:17.249Z,82.28
2018-11-27T00:22:17.288Z,82.39
2018-11-27T00:23:17.255Z,82.11
2018-11-27T00:24:17.251Z,81.76
2018-11-27T00:25:17.210Z,82.07
2018-11-27T00:26:17.217Z,81.97
2018-11-27T00:27:17.214Z,82.42
2018-11-27T00:28:17.176Z,82.63
2018-11-27T00:29:17.173Z,82.73
2018-11-27T00:30:17.219Z,82.73
2018-11-27T00:31:17.191Z,82.63
2018-11-27T00:32:17.164Z,82.28
2018-11-27T00:33:17.151Z,82.53
2018-11-27T00:34:17.131Z,82.49
2018-11-27T00:35:17.121Z,82.21
2018-11-27T00:36:17.165Z,82.32
2018-11-27T00:37:17.077Z,82.21
2018-11-27T00:38:17.073Z,82.32
2018-11-27T00:39:17.053Z,82.73
2018-11-27T00:40:17.062Z,83.04
2018-11-27T00:41:17.041Z,83.01
2018-11-27T00:42:17.028Z,82.73
2018-11-27T00:43:17.038Z,83.04
2018-11-27T00:44:16.999Z,83.04
2018-11-27T00:45:17.013Z,82.84
2018-11-27T00:46:16.998Z,82.94
2018-11-27T00:47:16.973Z,82.63
2018-11-27T00:48:16.966Z,83.15
2018-11-27T00:49:16.971Z,83.04
2018-11-27T00:50:16.935Z,82.73
2018-11-27T00:51:16.973Z,82.42
2018-11-27T00:52:16.909Z,83.04
2018-11-27T00:53:16.920Z,82.94
2018-11-27T00:54:16.891Z,83.15
2018-11-27T00:55:16.884Z,82.84
2018-11-27T00:56:16.902Z,82.42
2018-11-27T00:57:16.857Z,83.15
2018-11-27T00:58:16.854Z,83.04
2018-11-27T00:59:16.841Z,82.94
2018-11-27T01:00:16.824Z,83.15
2018-11-27T01:01:16.820Z,82.53
2018-11-27T01:02:16.859Z,83.15
2018-11-27T01:03:16.819Z,83.15
2018-11-27T01:04:16.811Z,83.15
2018-11-27T01:05:16.802Z,82.94
2018-11-27T01:06:16.804Z,83.15
2018-11-27T01:07:16.751Z,83.04
2018-11-27T01:08:16.764Z,82.84
2018-11-27T01:09:16.726Z,82.84
2018-11-27T01:10:16.739Z,83.67
2018-11-27T01:11:16.716Z,82.73
2018-11-27T01:12:16.700Z,82.84
2018-11-27T01:13:16.704Z,83.15
2018-11-27T01:14:16.671Z,82.94
2018-11-27T01:15:16.660Z,82.84
2018-11-27T01:16:16.694Z,83.15
2018-11-27T01:17:16.671Z,82.80
2018-11-27T01:18:16.675Z,82.84
2018-11-27T01:19:16.622Z,82.63
2018-11-27T01:20:16.637Z,82.84
2018-11-27T01:21:16.620Z,82.70
2018-11-27T01:22:16.613Z,82.84
2018-11-27T01:23:16.632Z,83.01
2018-11-27T01:24:16.590Z,82.70
2018-11-27T01:25:16.567Z,82.21
2018-11-27T01:26:16.590Z,82.73
2018-11-27T01:27:16.528Z,82.84
2018-11-27T01:28:16.517Z,83.04
2018-11-27T01:29:16.514Z,82.84
2018-11-27T01:30:16.502Z,83.04
2018-11-27T01:31:16.492Z,83.04
2018-11-27T01:32:16.494Z,83.15
2018-11-27T01:33:16.489Z,82.84
2018-11-27T01:34:16.476Z,82.53
2018-11-27T01:35:16.440Z,82.59
2018-11-27T01:36:16.505Z,83.04
2018-11-27T01:37:16.458Z,82.01
2018-11-27T01:38:16.409Z,82.53
2018-11-27T01:39:16.420Z,82.73
2018-11-27T01:40:16.388Z,82.11
2018-11-27T01:41:16.381Z,82.32
2018-11-27T01:42:16.368Z,82.53
2018-11-27T01:43:16.355Z,82.21
2018-11-27T01:44:16.357Z,82.73
2018-11-27T01:45:16.574Z,83.04
2018-11-27T01:46:16.319Z,82.21
2018-11-27T01:47:16.317Z,82.39
2018-11-27T01:48:16.302Z,82.42
2018-11-27T01:49:16.316Z,82.90
2018-11-27T01:50:16.283Z,83.04
2018-11-27T01:51:16.278Z,83.04
2018-11-27T01:52:16.265Z,83.04
2018-11-27T01:53:16.249Z,82.73
2018-11-27T01:54:16.258Z,82.73
2018-11-27T01:55:16.233Z,82.84
2018-11-27T01:56:16.229Z,82.63
2018-11-27T01:57:16.216Z,82.21
2018-11-27T01:58:16.193Z,82.42
2018-11-27T01:59:16.184Z,82.42
2018-11-27T02:00:16.481Z,82.53
2018-11-27T02:01:16.187Z,82.32
2018-11-27T02:02:16.170Z,82.42
2018-11-27T02:03:16.147Z,82.84
2018-11-27T02:04:16.132Z,82.42
2018-11-27T02:05:16.124Z,82.42
2018-11-27T02:06:16.150Z,82.73
2018-11-27T02:07:16.096Z,82.18
2018-11-27T02:08:16.117Z,82.42
2018-11-27T02:09:16.074Z,82.32
2018-11-27T02:10:16.114Z,82.59
2018-11-27T02:11:16.074Z,82.53
2018-11-27T02:12:16.040Z,82.32
2018-11-27T02:13:16.035Z,82.94
2018-11-27T02:14:16.022Z,82.63
2018-11-27T02:15:16.059Z,82.73
2018-11-27T02:16:16.029Z,81.87
2018-11-27T02:17:15.987Z,82.32
2018-11-27T02:18:15.999Z,82.63
2018-11-27T02:19:15.966Z,82.84
2018-11-27T02:20:15.957Z,82.07
2018-11-27T02:21:16.020Z,81.97
2018-11-27T02:22:15.969Z,82.21
2018-11-27T02:23:15.941Z,82.32
2018-11-27T02:24:15.912Z,82.21
2018-11-27T02:25:15.933Z,82.49
2018-11-27T02:26:15.911Z,82.01
2018-11-27T02:27:15.894Z,82.07
2018-11-27T02:28:15.865Z,82.01
2018-11-27T02:29:15.880Z,81.97
2018-11-27T02:30:15.862Z,82.07
2018-11-27T02:31:15.862Z,81.97
2018-11-27T02:32:15.824Z,82.11
2018-11-27T02:33:15.843Z,82.21
2018-11-27T02:34:15.828Z,82.18
2018-11-27T02:35:15.791Z,82.01
2018-11-27T02:36:15.808Z,81.76
2018-11-27T02:37:15.777Z,82.11
2018-11-27T02:38:15.785Z,81.59
2018-11-27T02:39:15.748Z,81.80
2018-11-27T02:40:15.746Z,81.97
2018-11-27T02:41:15.726Z,81.56
2018-11-27T02:42:15.762Z,81.49
2018-11-27T02:43:16.040Z,81.80
2018-11-27T02:44:15.700Z,81.90
2018-11-27T02:45:15.700Z,81.35
2018-11-27T02:46:15.683Z,81.49
2018-11-27T02:47:15.686Z,81.35
2018-11-27T02:48:15.647Z,81.35
2018-11-27T02:49:15.687Z,81.49
2018-11-27T02:50:15.662Z,81.76
2018-11-27T02:51:15.613Z,82.49
2018-11-27T02:52:15.631Z,82.32
2018-11-27T02:53:15.638Z,82.53
2018-11-27T02:54:15.585Z,81.49
2018-11-27T02:55:15.596Z,81.80
2018-11-27T02:56:15.603Z,81.70
2018-11-27T02:57:15.552Z,82.01
2018-11-27T02:58:15.599Z,81.76
2018-11-27T02:59:15.530Z,81.80
2018-11-27T03:00:15.520Z,81.97
2018-11-27T03:01:15.536Z,81.59
2018-11-27T03:02:15.580Z,81.49
2018-11-27T03:03:15.537Z,81.49
2018-11-27T03:04:15.510Z,81.38
2018-11-27T03:05:15.526Z,81.04
2018-11-27T03:06:15.485Z,81.28
2018-11-27T03:07:15.534Z,81.49
2018-11-27T03:08:15.464Z,81.45
2018-11-27T03:09:15.425Z,81.45
2018-11-27T03:10:15.447Z,81.59
2018-11-27T03:11:15.427Z,81.49
2018-11-27T03:12:15.392Z,81.35
2018-11-27T03:13:15.457Z,81.49
2018-11-27T03:14:15.378Z,81.38
2018-11-27T03:15:15.382Z,81.28
2018-11-27T03:16:15.345Z,81.49
2018-11-27T03:17:15.356Z,81.38
2018-11-27T03:18:15.355Z,81.59
2018-11-27T03:19:15.341Z,81.49
2018-11-27T03:20:15.318Z,81.49
2018-11-27T03:21:15.294Z,81.28
2018-11-27T03:22:15.285Z,81.49
2018-11-27T03:23:15.295Z,81.59
2018-11-27T03:24:15.264Z,81.38
2018-11-27T03:25:15.250Z,81.38
2018-11-27T03:26:15.271Z,81.35
2018-11-27T03:27:15.230Z,81.49
2018-11-27T03:28:15.241Z,81.76
2018-11-27T03:29:15.203Z,81.49
2018-11-27T03:31:32.095Z,81.28
2018-11-27T03:32:31.551Z,81.38
2018-11-27T03:33:31.531Z,81.49
2018-11-27T03:34:31.525Z,81.49
2018-11-27T03:35:31.513Z,81.59
2018-11-27T03:36:31.500Z,81.49
2018-11-27T03:37:31.544Z,81.18
2018-11-27T03:38:31.499Z,81.38
2018-11-27T03:39:31.474Z,81.66
2018-11-27T03:40:31.505Z,81.07
2018-11-27T03:41:31.475Z,81.07
2018-11-27T03:42:31.440Z,81.59
2018-11-27T03:43:31.425Z,81.59
2018-11-27T03:44:31.443Z,81.18
2018-11-27T03:45:31.432Z,80.97
2018-11-27T03:46:31.402Z,81.28
2018-11-27T03:47:31.398Z,81.14
2018-11-27T03:48:31.369Z,81.07
2018-11-27T03:49:31.363Z,81.18
2018-11-27T03:50:31.382Z,81.28
2018-11-27T03:51:31.372Z,80.97
2018-11-27T03:52:31.328Z,81.04
2018-11-27T03:53:31.318Z,81.38
2018-11-27T03:54:31.346Z,80.87
2018-11-27T03:55:31.296Z,81.07
2018-11-27T03:56:31.281Z,80.76
2018-11-27T03:57:31.276Z,80.93
2018-11-27T03:58:31.264Z,80.76
2018-11-27T03:59:31.251Z,80.55
2018-11-27T04:00:31.290Z,80.62
2018-11-27T04:01:31.232Z,80.10
2018-11-27T04:02:31.224Z,80.55
2018-11-27T04:03:31.216Z,80.52
2018-11-27T04:04:31.206Z,80.62
2018-11-27T04:05:31.215Z,80.66
2018-11-27T04:06:31.193Z,80.55
2018-11-27T04:07:31.167Z,80.55
2018-11-27T04:08:31.155Z,80.62
2018-11-27T04:09:31.155Z,80.62
2018-11-27T04:10:31.156Z,80.73
2018-11-27T04:11:31.122Z,80.55
2018-11-27T04:12:31.112Z,80.66
2018-11-27T04:13:31.102Z,80.87
2018-11-27T04:14:31.096Z,80.55
2018-11-27T04:15:31.382Z,80.76
2018-11-27T04:16:31.096Z,80.66
2018-11-27T04:17:31.058Z,80.76
2018-11-27T04:18:31.051Z,80.76
2018-11-27T04:19:31.035Z,80.35
2018-11-27T04:20:32.340Z,80.93
2018-11-27T04:21:31.046Z,80.87
2018-11-27T04:22:31.003Z,80.55
2018-11-27T04:23:30.997Z,80.93
2018-11-27T04:24:30.990Z,80.31
2018-11-27T04:25:30.998Z,79.72
2018-11-27T04:26:31.100Z,80.00
2018-11-27T04:27:30.967Z,80.35
2018-11-27T04:28:30.941Z,80.35
2018-11-27T04:29:30.944Z,80.00
2018-11-27T04:30:30.940Z,80.21
2018-11-27T04:31:30.917Z,79.48
2018-11-27T04:32:30.916Z,79.90
2018-11-27T04:33:30.906Z,80.14
2018-11-27T04:34:30.878Z,79.58
2018-11-27T04:35:30.862Z,79.69
2018-11-27T04:36:31.106Z,79.69
2018-11-27T04:37:30.850Z,78.75
2018-11-27T04:38:30.934Z,79.06
2018-11-27T04:39:30.884Z,79.61
2018-11-27T04:40:30.822Z,80.04
2018-11-27T04:41:30.798Z,79.27
2018-11-27T04:42:30.823Z,79.69
2018-11-27T04:43:30.799Z,79.30
2018-11-27T04:44:30.769Z,79.69
2018-11-27T04:45:30.793Z,79.41
2018-11-27T04:46:30.776Z,79.69
2018-11-27T04:47:30.737Z,79.27
2018-11-27T04:48:30.731Z,79.61
2018-11-27T04:49:30.712Z,79.38
2018-11-27T04:50:30.714Z,79.61
2018-11-27T04:51:30.703Z,79.38
2018-11-27T04:52:30.726Z,79.58
2018-11-27T04:53:30.696Z,79.27
2018-11-27T04:54:30.662Z,79.30
2018-11-27T04:55:30.651Z,78.99
2018-11-27T04:56:30.660Z,79.41
2018-11-27T04:57:30.635Z,79.72
2018-11-27T04:58:30.648Z,79.30
2018-11-27T04:59:30.616Z,79.72
2018-11-27T05:00:30.593Z,79.61
2018-11-27T05:01:30.598Z,79.72
2018-11-27T05:02:30.601Z,79.72
2018-11-27T05:03:30.585Z,79.72
2018-11-27T05:04:30.559Z,79.72
2018-11-27T05:05:30.539Z,79.06
2018-11-27T05:06:30.583Z,79.61
2018-11-27T05:07:30.526Z,79.72
2018-11-27T05:08:30.530Z,79.72
2018-11-27T05:09:30.497Z,79.30
2018-11-27T05:10:30.486Z,79.20
2018-11-27T05:11:30.494Z,79.20
2018-11-27T05:12:30.489Z,79.51
2018-11-27T05:13:30.481Z,79.06
2018-11-27T05:14:30.450Z,79.20
2018-11-27T05:15:30.431Z,79.41
2018-11-27T05:16:30.432Z,79.10
2018-11-27T05:17:30.433Z,78.99
2018-11-27T05:18:30.402Z,78.68
2018-11-27T05:19:30.422Z,78.86
2018-11-27T05:20:30.379Z,78.89
2018-11-27T05:21:30.366Z,78.99
2018-11-27T05:22:30.379Z,78.89
2018-11-27T05:23:30.596Z,78.68
2018-11-27T05:24:30.338Z,78.78
2018-11-27T05:25:30.347Z,78.99
2018-11-27T05:26:30.371Z,78.58
2018-11-27T05:27:30.324Z,78.68
2018-11-27T05:28:30.333Z,79.17
2018-11-27T05:29:30.280Z,78.89
2018-11-27T05:30:30.337Z,78.75
2018-11-27T05:31:30.276Z,79.20
2018-11-27T05:32:30.248Z,79.10
2018-11-27T05:33:30.237Z,78.89
2018-11-27T05:34:30.506Z,78.75
2018-11-27T05:35:30.221Z,78.78
2018-11-27T05:36:30.208Z,78.96
2018-11-27T05:37:30.194Z,78.89
2018-11-27T05:38:30.195Z,79.06
2018-11-27T05:39:30.182Z,78.86
2018-11-27T05:40:30.200Z,78.99
2018-11-27T05:41:30.170Z,78.78
2018-11-27T05:42:30.195Z,78.68
2018-11-27T05:43:30.173Z,78.68
2018-11-27T05:44:30.120Z,78.65
2018-11-27T05:45:30.140Z,78.47
2018-11-27T05:46:30.111Z,78.34
2018-11-27T05:47:30.106Z,78.34
2018-11-27T05:48:30.108Z,78.34
2018-11-27T05:49:30.063Z,77.75
2018-11-27T05:50:30.104Z,78.47
2018-11-27T05:51:30.059Z,78.47
2018-11-27T05:52:30.052Z,78.68
2018-11-27T05:53:30.021Z,78.06
2018-11-27T05:54:30.046Z,78.58
2018-11-27T05:55:30.042Z,78.34
2018-11-27T05:56:30.001Z,77.82
2018-11-27T05:57:29.978Z,77.85
2018-11-27T05:58:29.973Z,78.65
2018-11-27T05:59:29.963Z,78.65
2018-11-27T06:00:30.002Z,77.23
2018-11-27T06:01:29.931Z,77.64
2018-11-27T06:02:29.930Z,77.44
2018-11-27T06:03:29.921Z,77.51
2018-11-27T06:04:29.913Z,77.40
2018-11-27T06:05:29.930Z,77.44
2018-11-27T06:06:29.889Z,77.02
2018-11-27T06:07:29.899Z,76.99
2018-11-27T06:08:29.884Z,77.61
2018-11-27T06:09:29.858Z,77.23
2018-11-27T06:10:29.862Z,76.89
2018-11-27T06:11:29.836Z,76.68
2018-11-27T06:12:29.815Z,76.71
2018-11-27T06:13:29.807Z,76.57
2018-11-27T06:14:29.798Z,76.57
2018-11-27T06:15:29.801Z,76.40
2018-11-27T06:16:29.770Z,76.50
2018-11-27T06:17:29.785Z,76.57
2018-11-27T06:18:29.752Z,76.09
2018-11-27T06:19:29.744Z,76.26
2018-11-27T06:20:29.757Z,76.29
2018-11-27T06:21:29.720Z,76.50
2018-11-27T06:22:29.728Z,75.98
2018-11-27T06:23:29.696Z,76.50
2018-11-27T06:24:29.686Z,76.50
2018-11-27T06:25:29.955Z,76.50
2018-11-27T06:26:29.675Z,76.57
2018-11-27T06:27:29.656Z,76.40
2018-11-27T06:28:29.648Z,76.61
2018-11-27T06:29:29.631Z,76.19
2018-11-27T06:30:29.623Z,75.98
2018-11-27T06:31:29.633Z,76.26
2018-11-27T06:32:29.621Z,76.19
2018-11-27T06:33:29.615Z,76.29
2018-11-27T06:34:29.588Z,76.19
2018-11-27T06:35:29.575Z,76.09
2018-11-27T06:36:29.562Z,76.19
2018-11-27T06:37:29.546Z,76.06
2018-11-27T06:38:29.569Z,75.57
2018-11-27T06:39:29.527Z,75.57
2018-11-27T06:40:29.524Z,75.46
2018-11-27T06:41:29.504Z,76.37
2018-11-27T06:42:29.493Z,75.64
2018-11-27T06:43:29.500Z,76.40
2018-11-27T06:44:29.490Z,76.19
2018-11-27T06:45:29.481Z,76.29
2018-11-27T06:46:29.485Z,76.09
2018-11-27T06:47:29.444Z,76.16
2018-11-27T06:48:29.439Z,76.29
2018-11-27T06:49:29.416Z,75.05
2018-11-27T06:50:29.409Z,74.60
2018-11-27T06:51:29.395Z,75.15
2018-11-27T06:52:29.415Z,75.26
2018-11-27T06:53:29.384Z,75.02
2018-11-27T06:54:29.366Z,75.36
2018-11-27T06:55:29.351Z,75.36
2018-11-27T06:56:29.337Z,75.46
2018-11-27T06:57:29.336Z,75.36
2018-11-27T06:58:29.559Z,75.46
2018-11-27T06:59:29.311Z,75.02
2018-11-27T07:00:29.294Z,74.32
2018-11-27T07:01:29.293Z,74.32
2018-11-27T07:02:29.285Z,74.43
2018-11-27T07:03:31.031Z,74.63
2018-11-27T07:04:29.258Z,74.43
2018-11-27T07:05:29.242Z,74.50
2018-11-27T07:06:29.236Z,73.88
2018-11-27T07:07:29.226Z,74.19
2018-11-27T07:08:29.229Z,74.50
2018-11-27T07:09:29.227Z,74.40
2018-11-27T07:10:29.193Z,74.60
2018-11-27T07:11:29.203Z,74.50
2018-11-27T07:12:29.201Z,74.29
2018-11-27T07:13:29.249Z,74.91
2018-11-27T07:14:29.184Z,74.50
2018-11-27T07:15:29.137Z,74.60
2018-11-27T07:16:29.121Z,74.40
2018-11-27T07:17:29.156Z,74.50
2018-11-27T07:18:29.144Z,74.19
2018-11-27T07:19:29.101Z,74.29
2018-11-27T07:20:29.082Z,74.29
2018-11-27T07:21:29.075Z,74.29
2018-11-27T07:22:29.065Z,73.88
2018-11-27T07:23:29.068Z,74.40
2018-11-27T07:24:29.038Z,74.19
2018-11-27T07:25:29.048Z,74.40
2018-11-27T07:26:29.021Z,74.40
2018-11-27T07:27:29.050Z,74.50
2018-11-27T07:28:29.044Z,74.95
2018-11-27T07:29:29.007Z,74.40
2018-11-27T07:30:29.012Z,74.19
2018-11-27T07:31:28.958Z,74.40
2018-11-27T07:32:28.946Z,74.60
2018-11-27T07:33:28.950Z,74.91
2018-11-27T07:34:28.949Z,74.29
2018-11-27T07:35:28.914Z,75.02
2018-11-27T07:36:28.909Z,75.02
2018-11-27T07:37:28.898Z,75.02
2018-11-27T07:38:28.892Z,74.91
2018-11-27T07:39:28.903Z,74.91
2018-11-27T07:40:28.879Z,75.12
2018-11-27T07:41:28.865Z,74.50
2018-11-27T07:42:28.845Z,74.60
2018-11-27T07:43:28.859Z,74.29
2018-11-27T07:44:28.825Z,73.98
2018-11-27T07:45:28.832Z,74.08
2018-11-27T07:46:28.795Z,74.19
2018-11-27T07:47:28.826Z,74.19
2018-11-27T07:48:28.784Z,74.60
2018-11-27T07:49:28.787Z,74.40
2018-11-27T07:50:28.762Z,74.91
2018-11-27T07:51:28.749Z,74.74
2018-11-27T07:52:28.732Z,74.50
2018-11-27T07:53:28.760Z,74.60
2018-11-27T07:54:28.719Z,75.12
2018-11-27T07:55:28.708Z,75.02
2018-11-27T07:56:28.687Z,74.50
2018-11-27T07:57:28.677Z,75.02
2018-11-27T07:58:28.694Z,75.43
2018-11-27T07:59:28.678Z,75.43
2018-11-27T08:00:28.648Z,73.98
2018-11-27T08:01:28.653Z,73.46
2018-11-27T08:02:28.624Z,73.25
2018-11-27T08:03:28.622Z,74.08
2018-11-27T08:04:28.640Z,74.71
2018-11-27T08:05:28.600Z,74.08
2018-11-27T08:06:28.584Z,74.50
2018-11-27T08:07:28.571Z,73.57
2018-11-27T08:08:28.590Z,73.15
2018-11-27T08:09:28.567Z,73.88
2018-11-27T08:10:28.552Z,73.15
2018-11-27T08:11:28.526Z,72.63
2018-11-27T08:12:28.525Z,73.05
2018-11-27T08:13:28.520Z,72.84
2018-11-27T08:14:28.520Z,72.63
2018-11-27T08:15:28.487Z,72.53
2018-11-27T08:16:28.472Z,72.80
2018-11-27T08:17:28.463Z,73.25
2018-11-27T08:18:28.466Z,72.74
2018-11-27T08:19:28.440Z,73.46
2018-11-27T08:20:28.452Z,73.01
2018-11-27T08:21:28.424Z,73.11
2018-11-27T08:22:28.422Z,73.15
2018-11-27T08:23:28.397Z,73.25
2018-11-27T08:24:28.394Z,73.77
2018-11-27T08:25:28.410Z,73.46
2018-11-27T08:26:28.363Z,73.67
2018-11-27T08:27:28.353Z,73.98
2018-11-27T08:28:28.349Z,73.25
2018-11-27T08:29:28.337Z,73.25
2018-11-27T08:30:28.347Z,74.81
2018-11-27T08:31:28.321Z,73.25
2018-11-27T08:32:28.304Z,73.05
2018-11-27T08:33:28.286Z,72.63
2018-11-27T08:34:28.301Z,72.94
2018-11-27T08:35:28.315Z,72.84
2018-11-27T08:36:28.265Z,73.11
2018-11-27T08:37:28.272Z,72.91
2018-11-27T08:38:28.237Z,73.15
2018-11-27T08:39:28.228Z,72.84
2018-11-27T08:40:28.273Z,73.32
2018-11-27T08:41:28.204Z,72.84
2018-11-27T08:42:28.190Z,73.05
2018-11-27T08:43:28.231Z,73.32
2018-11-27T08:44:28.172Z,73.53
2018-11-27T08:45:28.159Z,73.43
2018-11-27T08:46:28.146Z,73.11
2018-11-27T08:47:28.145Z,73.53
2018-11-27T08:48:28.149Z,73.94
2018-11-27T08:49:28.118Z,73.43
2018-11-27T08:50:28.123Z,72.91
2018-11-27T08:51:28.125Z,73.43
2018-11-27T08:52:28.087Z,73.22
2018-11-27T08:53:28.074Z,73.43
2018-11-27T08:54:28.067Z,73.88
2018-11-27T08:55:28.052Z,74.46
2018-11-27T08:56:28.065Z,74.67
2018-11-27T08:57:28.032Z,74.46
2018-11-27T08:58:28.019Z,73.74
2018-11-27T08:59:28.011Z,73.53
2018-11-27T09:00:27.998Z,74.36
2018-11-27T09:01:28.292Z,74.98
2018-11-27T09:02:27.980Z,74.67
2018-11-27T09:03:27.962Z,73.63
2018-11-27T09:04:27.964Z,74.57
2018-11-27T09:05:27.944Z,73.94
2018-11-27T09:06:27.929Z,74.46
2018-11-27T09:07:27.960Z,74.05
2018-11-27T09:08:27.911Z,74.15
2018-11-27T09:09:27.906Z,74.15
2018-11-27T09:10:27.894Z,74.36
2018-11-27T09:11:27.875Z,74.26
2018-11-27T09:12:27.866Z,74.46
2018-11-27T09:13:27.989Z,74.46
2018-11-27T09:14:27.844Z,74.46
2018-11-27T09:15:27.832Z,74.57
2018-11-27T09:16:27.834Z,74.15
2018-11-27T09:17:27.836Z,74.26
2018-11-27T09:18:27.815Z,74.57
2018-11-27T09:19:27.846Z,74.57
2018-11-27T09:20:27.778Z,74.26
2018-11-27T09:21:27.773Z,74.46
2018-11-27T09:22:27.767Z,74.46
2018-11-27T09:23:27.775Z,74.57
2018-11-27T09:24:27.782Z,74.46
2018-11-27T09:25:27.724Z,74.46
2018-11-27T09:26:27.715Z,74.46
2018-11-27T09:27:27.740Z,74.67
2018-11-27T09:28:27.691Z,74.46
2018-11-27T09:29:27.683Z,75.09
2018-11-27T09:30:27.671Z,74.98
2018-11-27T09:31:27.671Z,75.19
2018-11-27T09:32:27.648Z,75.40
2018-11-27T09:33:27.673Z,75.50
2018-11-27T09:34:28.521Z,75.40
2018-11-27T09:35:27.618Z,75.19
2018-11-27T09:36:27.609Z,74.46
2018-11-27T09:37:27.594Z,74.46
2018-11-27T09:38:27.610Z,74.98
2018-11-27T09:39:27.573Z,75.09
2018-11-27T09:40:27.558Z,74.88
2018-11-27T09:41:27.565Z,74.67
2018-11-27T09:42:27.564Z,74.98
2018-11-27T09:43:27.559Z,74.88
2018-11-27T09:44:27.518Z,75.09
2018-11-27T09:45:27.514Z,75.40
2018-11-27T09:46:27.505Z,75.19
2018-11-27T09:47:27.489Z,75.09
2018-11-27T09:48:27.505Z,75.19
2018-11-27T09:49:27.468Z,75.19
2018-11-27T09:50:27.455Z,76.23
2018-11-27T09:51:27.446Z,75.50
2018-11-27T09:52:27.432Z,75.50
2018-11-27T09:53:27.463Z,75.29
2018-11-27T09:54:27.416Z,75.40
2018-11-27T09:55:27.527Z,74.98
2018-11-27T09:56:27.389Z,76.12
2018-11-27T09:57:27.388Z,76.12
2018-11-27T09:58:27.411Z,76.12
2018-11-27T09:59:27.362Z,76.33
2018-11-27T10:00:27.347Z,76.02
2018-11-27T10:01:27.357Z,75.98
2018-11-27T10:02:27.328Z,76.02
2018-11-27T10:03:27.321Z,76.29
2018-11-27T10:04:27.336Z,76.29
2018-11-27T10:05:27.323Z,74.88
2018-11-27T10:06:27.286Z,75.40
2018-11-27T10:07:27.881Z,75.46
2018-11-27T10:08:27.265Z,75.19
2018-11-27T10:09:27.281Z,75.15
2018-11-27T10:10:27.249Z,75.40
2018-11-27T10:11:27.225Z,76.19
2018-11-27T10:12:27.242Z,75.50
2018-11-27T10:13:27.220Z,75.15
2018-11-27T10:14:27.215Z,75.40
2018-11-27T10:15:27.191Z,75.40
2018-11-27T10:16:27.171Z,75.40
2018-11-27T10:17:27.164Z,75.40
2018-11-27T10:18:27.174Z,75.09
2018-11-27T10:19:28.252Z,74.88
2018-11-27T10:20:27.131Z,75.26
2018-11-27T10:21:27.147Z,74.98
2018-11-27T10:22:27.110Z,74.98
2018-11-27T10:23:27.099Z,76.40
2018-11-27T10:24:27.091Z,76.09
2018-11-27T10:25:27.360Z,76.29
2018-11-27T10:26:27.073Z,76.23
2018-11-27T10:27:27.070Z,76.19
2018-11-27T10:28:31.836Z,75.40
2018-11-27T10:29:28.030Z,75.46
2018-11-27T10:30:27.028Z,75.50
2018-11-27T10:31:27.037Z,75.26
2018-11-27T10:32:26.998Z,75.36
2018-11-27T10:33:27.007Z,75.19
2018-11-27T10:34:26.985Z,74.88
2018-11-27T10:35:26.972Z,74.36
2018-11-27T10:36:26.983Z,74.43
2018-11-27T10:37:26.951Z,74.77
2018-11-27T10:38:26.960Z,74.43
2018-11-27T10:39:26.938Z,74.53
2018-11-27T10:40:26.920Z,74.36
2018-11-27T10:41:26.923Z,74.95
2018-11-27T10:42:30.123Z,74.15
2018-11-27T10:43:26.883Z,74.01
2018-11-27T10:44:26.886Z,74.46
2018-11-27T10:45:26.862Z,74.32
2018-11-27T10:46:26.885Z,74.43
2018-11-27T10:47:26.835Z,74.46
2018-11-27T10:48:26.829Z,74.84
2018-11-27T10:49:26.818Z,74.95
2018-11-27T10:50:26.806Z,74.95
2018-11-27T10:51:26.823Z,75.15
2018-11-27T10:52:26.832Z,75.15
2018-11-27T10:53:26.772Z,74.84
2018-11-27T10:54:26.760Z,74.84
2018-11-27T10:55:26.762Z,74.43
2018-11-27T10:56:26.947Z,74.53
2018-11-27T10:57:26.731Z,74.01
2018-11-27T10:58:26.765Z,73.91
2018-11-27T10:59:26.709Z,74.22
2018-11-27T11:00:26.696Z,74.43
2018-11-27T11:01:26.683Z,74.22
2018-11-27T11:02:26.681Z,74.46
2018-11-27T11:03:26.682Z,74.11
2018-11-27T11:04:26.654Z,74.32
2018-11-27T11:05:27.739Z,74.84
2018-11-27T11:06:26.631Z,74.95
2018-11-27T11:07:26.626Z,74.95
2018-11-27T11:08:26.635Z,74.43
2018-11-27T11:09:26.597Z,74.40
2018-11-27T11:10:26.587Z,74.11
2018-11-27T11:11:26.589Z,74.11
2018-11-27T11:12:26.572Z,74.08
2018-11-27T11:13:26.588Z,74.22
2018-11-27T11:14:26.552Z,74.29
2018-11-27T11:15:26.558Z,74.19
2018-11-27T11:16:26.524Z,74.01
2018-11-27T11:17:26.513Z,74.53
2018-11-27T11:18:26.500Z,74.11
2018-11-27T11:19:26.489Z,74.32
2018-11-27T11:20:26.479Z,74.11
2018-11-27T11:21:26.512Z,74.11
2018-11-27T11:22:26.459Z,74.11
2018-11-27T11:23:26.468Z,74.53
2018-11-27T11:24:26.439Z,74.53
2018-11-27T11:25:26.426Z,73.70
2018-11-27T11:26:26.410Z,74.11
2018-11-27T11:27:26.431Z,74.22
2018-11-27T11:28:26.393Z,74.32
2018-11-27T11:29:26.379Z,74.29
2018-11-27T11:30:26.369Z,74.32
2018-11-27T11:31:26.382Z,74.32
2018-11-27T11:32:26.354Z,73.98
2018-11-27T11:33:26.341Z,74.29
2018-11-27T11:34:26.357Z,74.08
2018-11-27T11:35:26.338Z,73.46
2018-11-27T11:36:26.304Z,73.15
2018-11-27T11:37:26.296Z,72.74
2018-11-27T11:38:26.288Z,73.15
2018-11-27T11:39:26.282Z,73.25
2018-11-27T11:40:26.313Z,72.63
2018-11-27T11:41:31.179Z,72.53
2018-11-27T11:42:27.247Z,73.25
2018-11-27T11:43:26.228Z,72.84
2018-11-27T11:44:26.243Z,72.74
2018-11-27T11:45:26.251Z,73.05
2018-11-27T11:46:26.193Z,72.74
2018-11-27T11:47:26.212Z,72.53
2018-11-27T11:48:26.180Z,72.53
2018-11-27T11:49:26.169Z,73.25
2018-11-27T11:50:26.167Z,72.63
2018-11-27T11:51:26.141Z,73.15
2018-11-27T11:52:26.152Z,72.39
2018-11-27T11:53:26.125Z,72.53
2018-11-27T11:54:26.138Z,72.22
2018-11-27T11:55:26.117Z,71.67
2018-11-27T11:56:26.092Z,71.04
2018-11-27T11:57:26.079Z,70.11
2018-11-27T11:58:26.118Z,69.53
2018-11-27T11:59:28.778Z,68.87
2018-11-27T12:00:26.073Z,67.66
2018-11-27T12:01:26.034Z,68.15
2018-11-27T12:02:26.893Z,66.21
2018-11-27T12:03:26.049Z,65.56
2018-11-27T12:04:26.028Z,66.21
2018-11-27T12:05:26.017Z,66.52
2018-11-27T12:06:25.987Z,66.38
2018-11-27T12:07:25.974Z,66.28
2018-11-27T12:08:25.957Z,66.38
2018-11-27T12:09:25.944Z,66.49
2018-11-27T12:10:25.991Z,66.90
2018-11-27T12:11:25.927Z,67.32
2018-11-27T12:12:25.918Z,67.32
2018-11-27T12:13:25.901Z,67.83
2018-11-27T12:14:25.896Z,67.73
2018-11-27T12:15:25.888Z,68.04
2018-11-27T12:16:25.894Z,67.73
2018-11-27T12:17:25.861Z,67.83
2018-11-27T12:18:25.854Z,67.73
2018-11-27T12:19:25.833Z,67.32
2018-11-27T12:20:25.824Z,66.90
2018-11-27T12:21:25.845Z,66.59
2018-11-27T12:22:25.804Z,66.90
2018-11-27T12:23:25.795Z,67.73
2018-11-27T12:24:25.791Z,68.15
2018-11-27T12:25:25.770Z,68.15
2018-11-27T12:26:25.781Z,68.25
2018-11-27T12:27:25.773Z,68.25
2018-11-27T12:28:25.743Z,68.98
2018-11-27T12:29:25.726Z,68.87
2018-11-27T12:30:25.719Z,68.56
2018-11-27T12:31:25.731Z,68.35
2018-11-27T12:32:25.718Z,68.46
2018-11-27T12:33:25.691Z,67.94
2018-11-27T12:34:25.679Z,68.25
2018-11-27T12:35:25.662Z,68.46
2018-11-27T12:36:25.673Z,68.04
2018-11-27T12:37:25.649Z,67.94
2018-11-27T12:38:25.631Z,68.66
2018-11-27T12:39:25.627Z,68.87
2018-11-27T12:40:25.612Z,68.87
2018-11-27T12:41:25.623Z,68.04
2018-11-27T12:42:25.589Z,67.83
2018-11-27T12:43:25.576Z,67.63
2018-11-27T12:44:25.583Z,67.83
2018-11-27T12:45:25.556Z,67.94
2018-11-27T12:46:25.577Z,68.07
2018-11-27T12:47:25.532Z,66.69
2018-11-27T12:48:25.520Z,66.93
2018-11-27T12:49:25.509Z,66.80
2018-11-27T12:50:25.516Z,66.69
2018-11-27T12:51:25.485Z,66.49
2018-11-27T12:52:25.501Z,66.90
2018-11-27T12:53:25.493Z,66.80